sensor_id;sensor_type;location;lat;lon;timestamp;P1;durP1;ratioP1;P2;durP2;ratioP2
52480;SDS011;38393;52.404;13.532;2022-08-19T00:01:46;11.65;;;6.05;;
52480;SDS011;38393;52.404;13.532;2022-08-19T00:04:13;10.15;;;6.38;;
52480;SDS011;38393;52.404;13.532;2022-08-19T00:06:40;8.27;;;5.75;;
52480;SDS011;38393;52.404;13.532;2022-08-19T00:09:08;8.95;;;5.93;;
52480;SDS011;38393;52.404;13.532;2022-08-19T00:11:34;8.25;;;6.00;;
52480;SDS011;38393;52.404;13.532;2022-08-19T00:14:01;13.93;;;5.90;;
52480;SDS011;38393;52.404;13.532;2022-08-19T00:16:27;7.82;;;5.78;;
52480;SDS011;38393;52.404;13.532;2022-08-19T00:18:54;9.50;;;6.25;;
52480;SDS011;38393;52.404;13.532;2022-08-19T00:21:20;9.73;;;6.05;;
52480;SDS011;38393;52.404;13.532;2022-08-19T00:23:46;8.55;;;6.00;;
52480;SDS011;38393;52.404;13.532;2022-08-19T00:26:13;9.82;;;6.78;;
52480;SDS011;38393;52.404;13.532;2022-08-19T00:28:39;9.23;;;6.45;;
52480;SDS011;38393;52.404;13.532;2022-08-19T00:31:05;9.25;;;5.95;;
52480;SDS011;38393;52.404;13.532;2022-08-19T00:33:32;9.18;;;6.35;;
52480;SDS011;38393;52.404;13.532;2022-08-19T00:35:58;9.10;;;6.32;;
52480;SDS011;38393;52.404;13.532;2022-08-19T00:38:24;10.98;;;7.53;;
52480;SDS011;38393;52.404;13.532;2022-08-19T00:40:51;10.68;;;7.00;;
52480;SDS011;38393;52.404;13.532;2022-08-19T00:43:21;10.35;;;6.35;;
52480;SDS011;38393;52.404;13.532;2022-08-19T00:45:47;9.95;;;6.75;;
52480;SDS011;38393;52.404;13.532;2022-08-19T00:48:14;9.68;;;6.47;;
52480;SDS011;38393;52.404;13.532;2022-08-19T00:50:41;10.63;;;7.03;;
52480;SDS011;38393;52.404;13.532;2022-08-19T00:53:08;12.57;;;7.13;;
52480;SDS011;38393;52.404;13.532;2022-08-19T00:55:35;9.02;;;6.57;;
52480;SDS011;38393;52.404;13.532;2022-08-19T00:58:02;10.38;;;6.65;;
52480;SDS011;38393;52.404;13.532;2022-08-19T01:00:31;10.32;;;7.60;;
52480;SDS011;38393;52.404;13.532;2022-08-19T01:03:01;11.27;;;7.57;;
52480;SDS011;38393;52.404;13.532;2022-08-19T01:05:27;12.93;;;7.13;;
52480;SDS011;38393;52.404;13.532;2022-08-19T01:07:54;11.45;;;7.68;;
52480;SDS011;38393;52.404;13.532;2022-08-19T01:10:23;12.65;;;7.05;;
52480;SDS011;38393;52.404;13.532;2022-08-19T01:12:49;11.90;;;6.68;;
52480;SDS011;38393;52.404;13.532;2022-08-19T01:15:17;11.43;;;7.40;;
52480;SDS011;38393;52.404;13.532;2022-08-19T01:17:44;11.15;;;7.45;;
52480;SDS011;38393;52.404;13.532;2022-08-19T01:20:14;9.55;;;6.82;;
52480;SDS011;38393;52.404;13.532;2022-08-19T01:22:45;11.48;;;7.40;;
52480;SDS011;38393;52.404;13.532;2022-08-19T01:25:12;10.13;;;7.43;;
52480;SDS011;38393;52.404;13.532;2022-08-19T01:27:43;9.65;;;7.20;;
52480;SDS011;38393;52.404;13.532;2022-08-19T01:30:11;11.30;;;7.45;;
52480;SDS011;38393;52.404;13.532;2022-08-19T01:32:38;11.75;;;8.07;;
52480;SDS011;38393;52.404;13.532;2022-08-19T01:35:04;12.48;;;8.48;;
52480;SDS011;38393;52.404;13.532;2022-08-19T01:37:40;14.70;;;8.40;;
52480;SDS011;38393;52.404;13.532;2022-08-19T01:40:06;14.18;;;8.25;;
52480;SDS011;38393;52.404;13.532;2022-08-19T01:42:33;13.95;;;8.30;;
52480;SDS011;38393;52.404;13.532;2022-08-19T01:45:00;11.40;;;8.30;;
52480;SDS011;38393;52.404;13.532;2022-08-19T01:47:25;11.55;;;6.95;;
52480;SDS011;38393;52.404;13.532;2022-08-19T01:49:51;12.30;;;7.30;;
52480;SDS011;38393;52.404;13.532;2022-08-19T01:52:17;9.25;;;6.80;;
52480;SDS011;38393;52.404;13.532;2022-08-19T01:54:43;9.65;;;6.50;;
52480;SDS011;38393;52.404;13.532;2022-08-19T01:57:10;11.00;;;6.28;;
52480;SDS011;38393;52.404;13.532;2022-08-19T01:59:38;10.27;;;6.18;;
52480;SDS011;38393;52.404;13.532;2022-08-19T02:02:05;7.85;;;5.40;;
52480;SDS011;38393;52.404;13.532;2022-08-19T02:04:32;11.93;;;6.30;;
52480;SDS011;38393;52.404;13.532;2022-08-19T02:06:59;9.18;;;6.03;;
52480;SDS011;38393;52.404;13.532;2022-08-19T02:09:24;10.57;;;7.10;;
52480;SDS011;38393;52.404;13.532;2022-08-19T02:11:50;9.68;;;6.78;;
52480;SDS011;38393;52.404;13.532;2022-08-19T02:14:16;10.38;;;6.63;;
52480;SDS011;38393;52.404;13.532;2022-08-19T02:16:42;9.95;;;6.38;;
52480;SDS011;38393;52.404;13.532;2022-08-19T02:19:08;12.60;;;6.22;;
52480;SDS011;38393;52.404;13.532;2022-08-19T02:21:35;7.93;;;5.78;;
52480;SDS011;38393;52.404;13.532;2022-08-19T02:24:02;10.30;;;6.63;;
52480;SDS011;38393;52.404;13.532;2022-08-19T02:26:28;11.80;;;6.45;;
52480;SDS011;38393;52.404;13.532;2022-08-19T02:28:55;9.60;;;6.50;;
52480;SDS011;38393;52.404;13.532;2022-08-19T02:31:22;11.45;;;6.97;;
52480;SDS011;38393;52.404;13.532;2022-08-19T02:33:48;9.93;;;6.13;;
52480;SDS011;38393;52.404;13.532;2022-08-19T02:36:15;9.80;;;6.55;;
52480;SDS011;38393;52.404;13.532;2022-08-19T02:38:44;11.48;;;6.35;;
52480;SDS011;38393;52.404;13.532;2022-08-19T02:41:17;9.35;;;6.30;;
52480;SDS011;38393;52.404;13.532;2022-08-19T02:43:44;13.43;;;7.32;;
52480;SDS011;38393;52.404;13.532;2022-08-19T02:46:14;10.68;;;6.40;;
52480;SDS011;38393;52.404;13.532;2022-08-19T02:48:42;9.70;;;6.63;;
52480;SDS011;38393;52.404;13.532;2022-08-19T02:51:14;11.18;;;7.22;;
52480;SDS011;38393;52.404;13.532;2022-08-19T02:53:40;9.98;;;6.47;;
52480;SDS011;38393;52.404;13.532;2022-08-19T02:56:07;9.48;;;6.28;;
52480;SDS011;38393;52.404;13.532;2022-08-19T02:58:33;10.95;;;6.05;;
52480;SDS011;38393;52.404;13.532;2022-08-19T03:00:59;12.95;;;6.30;;
52480;SDS011;38393;52.404;13.532;2022-08-19T03:03:25;9.65;;;6.13;;
52480;SDS011;38393;52.404;13.532;2022-08-19T03:05:51;9.45;;;6.43;;
52480;SDS011;38393;52.404;13.532;2022-08-19T03:08:17;9.43;;;6.40;;
52480;SDS011;38393;52.404;13.532;2022-08-19T03:10:46;11.50;;;7.07;;
52480;SDS011;38393;52.404;13.532;2022-08-19T03:13:13;11.32;;;6.63;;
52480;SDS011;38393;52.404;13.532;2022-08-19T03:15:42;10.50;;;7.22;;
52480;SDS011;38393;52.404;13.532;2022-08-19T03:18:08;10.75;;;6.88;;
52480;SDS011;38393;52.404;13.532;2022-08-19T03:20:39;11.63;;;7.35;;
52480;SDS011;38393;52.404;13.532;2022-08-19T03:23:05;12.18;;;7.40;;
52480;SDS011;38393;52.404;13.532;2022-08-19T03:25:31;11.57;;;7.82;;
52480;SDS011;38393;52.404;13.532;2022-08-19T03:28:02;11.00;;;7.68;;
52480;SDS011;38393;52.404;13.532;2022-08-19T03:30:28;11.40;;;7.80;;
52480;SDS011;38393;52.404;13.532;2022-08-19T03:32:54;11.80;;;7.82;;
52480;SDS011;38393;52.404;13.532;2022-08-19T03:35:20;11.82;;;7.88;;
52480;SDS011;38393;52.404;13.532;2022-08-19T03:37:46;13.68;;;8.63;;
52480;SDS011;38393;52.404;13.532;2022-08-19T03:40:12;12.88;;;8.10;;
52480;SDS011;38393;52.404;13.532;2022-08-19T03:42:38;17.30;;;9.10;;
52480;SDS011;38393;52.404;13.532;2022-08-19T03:45:06;12.90;;;8.35;;
52480;SDS011;38393;52.404;13.532;2022-08-19T03:47:32;13.13;;;8.60;;
52480;SDS011;38393;52.404;13.532;2022-08-19T03:49:58;11.05;;;7.68;;
52480;SDS011;38393;52.404;13.532;2022-08-19T03:52:24;10.02;;;6.97;;
52480;SDS011;38393;52.404;13.532;2022-08-19T03:54:50;15.52;;;7.25;;
52480;SDS011;38393;52.404;13.532;2022-08-19T03:57:16;13.07;;;7.68;;
52480;SDS011;38393;52.404;13.532;2022-08-19T03:59:42;11.02;;;7.35;;
52480;SDS011;38393;52.404;13.532;2022-08-19T04:02:10;11.23;;;6.93;;
52480;SDS011;38393;52.404;13.532;2022-08-19T04:04:40;15.57;;;8.13;;
52480;SDS011;38393;52.404;13.532;2022-08-19T04:07:08;10.10;;;7.05;;
52480;SDS011;38393;52.404;13.532;2022-08-19T04:09:34;14.50;;;7.50;;
52480;SDS011;38393;52.404;13.532;2022-08-19T04:12:01;11.48;;;7.93;;
52480;SDS011;38393;52.404;13.532;2022-08-19T04:14:30;10.38;;;6.97;;
52480;SDS011;38393;52.404;13.532;2022-08-19T04:16:56;11.77;;;7.78;;
52480;SDS011;38393;52.404;13.532;2022-08-19T04:19:23;11.25;;;7.93;;
52480;SDS011;38393;52.404;13.532;2022-08-19T04:21:49;11.45;;;7.68;;
52480;SDS011;38393;52.404;13.532;2022-08-19T04:24:16;10.73;;;7.57;;
52480;SDS011;38393;52.404;13.532;2022-08-19T04:26:42;12.32;;;7.90;;
52480;SDS011;38393;52.404;13.532;2022-08-19T04:29:10;12.18;;;8.10;;
52480;SDS011;38393;52.404;13.532;2022-08-19T04:31:36;10.07;;;7.55;;
52480;SDS011;38393;52.404;13.532;2022-08-19T04:34:04;11.82;;;7.75;;
52480;SDS011;38393;52.404;13.532;2022-08-19T04:36:32;11.98;;;8.18;;
52480;SDS011;38393;52.404;13.532;2022-08-19T04:38:59;11.00;;;7.25;;
52480;SDS011;38393;52.404;13.532;2022-08-19T04:41:26;10.68;;;7.70;;
52480;SDS011;38393;52.404;13.532;2022-08-19T04:44:11;10.65;;;7.47;;
52480;SDS011;38393;52.404;13.532;2022-08-19T04:46:37;11.07;;;7.30;;
52480;SDS011;38393;52.404;13.532;2022-08-19T04:49:04;10.50;;;7.28;;
52480;SDS011;38393;52.404;13.532;2022-08-19T04:51:30;11.50;;;7.82;;
52480;SDS011;38393;52.404;13.532;2022-08-19T04:53:57;12.40;;;7.75;;
52480;SDS011;38393;52.404;13.532;2022-08-19T04:56:24;10.95;;;7.45;;
52480;SDS011;38393;52.404;13.532;2022-08-19T04:58:51;10.77;;;7.43;;
52480;SDS011;38393;52.404;13.532;2022-08-19T05:01:18;10.05;;;7.13;;
52480;SDS011;38393;52.404;13.532;2022-08-19T05:03:44;12.90;;;7.82;;
52480;SDS011;38393;52.404;13.532;2022-08-19T05:06:12;11.40;;;7.30;;
52480;SDS011;38393;52.404;13.532;2022-08-19T05:08:39;13.07;;;7.22;;
52480;SDS011;38393;52.404;13.532;2022-08-19T05:13:35;10.98;;;7.15;;
52480;SDS011;38393;52.404;13.532;2022-08-19T05:16:02;12.05;;;8.10;;
52480;SDS011;38393;52.404;13.532;2022-08-19T05:18:28;11.13;;;7.60;;
52480;SDS011;38393;52.404;13.532;2022-08-19T05:21:13;11.48;;;7.57;;
52480;SDS011;38393;52.404;13.532;2022-08-19T05:23:58;12.38;;;8.32;;
52480;SDS011;38393;52.404;13.532;2022-08-19T05:26:25;11.65;;;7.68;;
52480;SDS011;38393;52.404;13.532;2022-08-19T05:28:54;10.93;;;7.25;;
52480;SDS011;38393;52.404;13.532;2022-08-19T05:31:20;10.18;;;6.68;;
52480;SDS011;38393;52.404;13.532;2022-08-19T05:33:46;12.05;;;7.55;;
52480;SDS011;38393;52.404;13.532;2022-08-19T05:36:12;9.68;;;7.10;;
52480;SDS011;38393;52.404;13.532;2022-08-19T05:38:39;12.15;;;7.13;;
52480;SDS011;38393;52.404;13.532;2022-08-19T05:41:08;10.38;;;7.47;;
52480;SDS011;38393;52.404;13.532;2022-08-19T05:43:34;9.88;;;6.82;;
52480;SDS011;38393;52.404;13.532;2022-08-19T05:46:00;9.95;;;7.00;;
52480;SDS011;38393;52.404;13.532;2022-08-19T05:48:26;10.75;;;7.07;;
52480;SDS011;38393;52.404;13.532;2022-08-19T05:50:53;8.90;;;6.65;;
52480;SDS011;38393;52.404;13.532;2022-08-19T05:53:19;10.52;;;6.60;;
52480;SDS011;38393;52.404;13.532;2022-08-19T05:55:44;9.93;;;7.32;;
52480;SDS011;38393;52.404;13.532;2022-08-19T05:58:10;8.85;;;6.35;;
52480;SDS011;38393;52.404;13.532;2022-08-19T06:00:37;12.80;;;7.00;;
52480;SDS011;38393;52.404;13.532;2022-08-19T06:03:03;10.15;;;6.60;;
52480;SDS011;38393;52.404;13.532;2022-08-19T06:05:30;10.55;;;7.00;;
52480;SDS011;38393;52.404;13.532;2022-08-19T06:07:56;9.55;;;6.82;;
52480;SDS011;38393;52.404;13.532;2022-08-19T06:10:23;11.50;;;7.22;;
52480;SDS011;38393;52.404;13.532;2022-08-19T06:12:49;9.13;;;6.65;;
52480;SDS011;38393;52.404;13.532;2022-08-19T06:15:15;10.13;;;7.10;;
52480;SDS011;38393;52.404;13.532;2022-08-19T06:17:41;11.02;;;7.15;;
52480;SDS011;38393;52.404;13.532;2022-08-19T06:20:09;12.15;;;7.00;;
52480;SDS011;38393;52.404;13.532;2022-08-19T06:22:40;11.23;;;7.20;;
52480;SDS011;38393;52.404;13.532;2022-08-19T06:25:06;11.63;;;7.70;;
52480;SDS011;38393;52.404;13.532;2022-08-19T06:27:34;10.38;;;7.03;;
52480;SDS011;38393;52.404;13.532;2022-08-19T06:30:00;11.60;;;7.60;;
52480;SDS011;38393;52.404;13.532;2022-08-19T06:32:26;10.98;;;7.72;;
52480;SDS011;38393;52.404;13.532;2022-08-19T06:34:52;11.80;;;7.85;;
52480;SDS011;38393;52.404;13.532;2022-08-19T06:37:18;11.40;;;7.90;;
52480;SDS011;38393;52.404;13.532;2022-08-19T06:39:46;10.05;;;7.90;;
52480;SDS011;38393;52.404;13.532;2022-08-19T06:42:12;11.38;;;8.05;;
52480;SDS011;38393;52.404;13.532;2022-08-19T06:44:41;15.77;;;7.65;;
52480;SDS011;38393;52.404;13.532;2022-08-19T06:47:08;10.68;;;7.28;;
52480;SDS011;38393;52.404;13.532;2022-08-19T06:49:35;11.15;;;7.50;;
52480;SDS011;38393;52.404;13.532;2022-08-19T06:52:01;11.48;;;7.68;;
52480;SDS011;38393;52.404;13.532;2022-08-19T06:54:27;11.23;;;7.53;;
52480;SDS011;38393;52.404;13.532;2022-08-19T06:56:57;10.82;;;7.55;;
52480;SDS011;38393;52.404;13.532;2022-08-19T06:59:26;10.75;;;7.78;;
52480;SDS011;38393;52.404;13.532;2022-08-19T07:01:53;13.48;;;8.23;;
52480;SDS011;38393;52.404;13.532;2022-08-19T07:04:21;10.90;;;7.60;;
52480;SDS011;38393;52.404;13.532;2022-08-19T07:06:48;12.82;;;7.78;;
52480;SDS011;38393;52.404;13.532;2022-08-19T07:09:15;12.85;;;8.55;;
52480;SDS011;38393;52.404;13.532;2022-08-19T07:11:45;12.10;;;8.00;;
52480;SDS011;38393;52.404;13.532;2022-08-19T07:14:12;11.13;;;7.40;;
52480;SDS011;38393;52.404;13.532;2022-08-19T07:16:39;12.35;;;7.95;;
52480;SDS011;38393;52.404;13.532;2022-08-19T07:19:04;13.18;;;8.45;;
52480;SDS011;38393;52.404;13.532;2022-08-19T07:21:31;11.57;;;7.55;;
52480;SDS011;38393;52.404;13.532;2022-08-19T07:23:59;13.05;;;8.50;;
52480;SDS011;38393;52.404;13.532;2022-08-19T07:26:26;14.55;;;8.75;;
52480;SDS011;38393;52.404;13.532;2022-08-19T07:28:53;12.18;;;8.30;;
52480;SDS011;38393;52.404;13.532;2022-08-19T07:31:20;13.43;;;8.45;;
52480;SDS011;38393;52.404;13.532;2022-08-19T07:33:47;14.95;;;8.40;;
52480;SDS011;38393;52.404;13.532;2022-08-19T07:36:14;14.70;;;8.43;;
52480;SDS011;38393;52.404;13.532;2022-08-19T07:38:42;13.60;;;8.55;;
52480;SDS011;38393;52.404;13.532;2022-08-19T07:41:10;13.32;;;9.02;;
52480;SDS011;38393;52.404;13.532;2022-08-19T07:43:36;12.52;;;8.35;;
52480;SDS011;38393;52.404;13.532;2022-08-19T07:46:02;12.35;;;8.30;;
52480;SDS011;38393;52.404;13.532;2022-08-19T07:48:28;13.85;;;8.30;;
52480;SDS011;38393;52.404;13.532;2022-08-19T07:50:55;11.88;;;8.13;;
52480;SDS011;38393;52.404;13.532;2022-08-19T07:53:22;14.55;;;8.40;;
52480;SDS011;38393;52.404;13.532;2022-08-19T07:55:48;11.63;;;8.25;;
52480;SDS011;38393;52.404;13.532;2022-08-19T07:58:15;12.07;;;8.30;;
52480;SDS011;38393;52.404;13.532;2022-08-19T08:00:43;15.02;;;8.73;;
52480;SDS011;38393;52.404;13.532;2022-08-19T08:03:09;14.35;;;8.57;;
52480;SDS011;38393;52.404;13.532;2022-08-19T08:05:35;13.77;;;8.43;;
52480;SDS011;38393;52.404;13.532;2022-08-19T08:08:20;10.93;;;8.52;;
52480;SDS011;38393;52.404;13.532;2022-08-19T08:11:04;12.95;;;8.00;;
52480;SDS011;38393;52.404;13.532;2022-08-19T08:13:32;12.38;;;8.82;;
52480;SDS011;38393;52.404;13.532;2022-08-19T08:16:00;12.45;;;8.93;;
52480;SDS011;38393;52.404;13.532;2022-08-19T08:18:25;13.13;;;8.88;;
52480;SDS011;38393;52.404;13.532;2022-08-19T08:20:51;13.63;;;9.02;;
52480;SDS011;38393;52.404;13.532;2022-08-19T08:23:17;12.73;;;8.65;;
52480;SDS011;38393;52.404;13.532;2022-08-19T08:25:50;11.82;;;8.40;;
52480;SDS011;38393;52.404;13.532;2022-08-19T08:28:17;11.13;;;8.40;;
52480;SDS011;38393;52.404;13.532;2022-08-19T08:30:43;12.25;;;8.07;;
52480;SDS011;38393;52.404;13.532;2022-08-19T08:33:12;12.25;;;8.73;;
52480;SDS011;38393;52.404;13.532;2022-08-19T08:35:39;12.18;;;8.38;;
52480;SDS011;38393;52.404;13.532;2022-08-19T08:38:07;12.60;;;8.75;;
52480;SDS011;38393;52.404;13.532;2022-08-19T08:40:39;12.88;;;8.65;;
52480;SDS011;38393;52.404;13.532;2022-08-19T08:43:10;13.90;;;9.25;;
52480;SDS011;38393;52.404;13.532;2022-08-19T08:45:43;12.82;;;8.93;;
52480;SDS011;38393;52.404;13.532;2022-08-19T08:48:18;12.23;;;9.10;;
52480;SDS011;38393;52.404;13.532;2022-08-19T08:50:46;12.73;;;9.10;;
52480;SDS011;38393;52.404;13.532;2022-08-19T08:53:13;12.32;;;8.50;;
52480;SDS011;38393;52.404;13.532;2022-08-19T08:55:40;13.60;;;9.30;;
52480;SDS011;38393;52.404;13.532;2022-08-19T08:58:09;14.70;;;9.80;;
52480;SDS011;38393;52.404;13.532;2022-08-19T09:00:39;14.52;;;9.60;;
52480;SDS011;38393;52.404;13.532;2022-08-19T09:03:08;13.70;;;9.20;;
52480;SDS011;38393;52.404;13.532;2022-08-19T09:05:40;14.15;;;9.40;;
52480;SDS011;38393;52.404;13.532;2022-08-19T09:08:11;13.75;;;9.50;;
52480;SDS011;38393;52.404;13.532;2022-08-19T09:10:44;15.48;;;10.10;;
52480;SDS011;38393;52.404;13.532;2022-08-19T09:15:47;12.55;;;9.73;;
52480;SDS011;38393;52.404;13.532;2022-08-19T09:18:14;13.73;;;9.60;;
52480;SDS011;38393;52.404;13.532;2022-08-19T09:20:41;12.32;;;8.38;;
52480;SDS011;38393;52.404;13.532;2022-08-19T09:23:07;12.48;;;8.88;;
52480;SDS011;38393;52.404;13.532;2022-08-19T09:25:34;12.68;;;9.15;;
52480;SDS011;38393;52.404;13.532;2022-08-19T09:28:00;15.45;;;9.90;;
52480;SDS011;38393;52.404;13.532;2022-08-19T09:30:31;12.15;;;9.07;;
52480;SDS011;38393;52.404;13.532;2022-08-19T09:32:57;12.73;;;9.45;;
52480;SDS011;38393;52.404;13.532;2022-08-19T09:35:25;14.20;;;9.88;;
52480;SDS011;38393;52.404;13.532;2022-08-19T09:37:51;13.48;;;9.32;;
52480;SDS011;38393;52.404;13.532;2022-08-19T09:40:17;13.90;;;9.60;;
52480;SDS011;38393;52.404;13.532;2022-08-19T09:42:44;13.23;;;8.98;;
52480;SDS011;38393;52.404;13.532;2022-08-19T09:45:12;15.60;;;9.95;;
52480;SDS011;38393;52.404;13.532;2022-08-19T09:47:38;12.93;;;9.60;;
52480;SDS011;38393;52.404;13.532;2022-08-19T09:50:05;16.73;;;9.82;;
52480;SDS011;38393;52.404;13.532;2022-08-19T09:52:31;15.60;;;11.40;;
52480;SDS011;38393;52.404;13.532;2022-08-19T09:54:57;15.27;;;11.00;;
52480;SDS011;38393;52.404;13.532;2022-08-19T09:57:23;19.25;;;11.82;;
52480;SDS011;38393;52.404;13.532;2022-08-19T09:59:49;16.75;;;10.45;;
52480;SDS011;38393;52.404;13.532;2022-08-19T10:02:15;18.77;;;11.23;;
52480;SDS011;38393;52.404;13.532;2022-08-19T10:04:41;17.13;;;11.70;;
52480;SDS011;38393;52.404;13.532;2022-08-19T10:07:26;16.17;;;9.98;;
52480;SDS011;38393;52.404;13.532;2022-08-19T10:09:51;16.05;;;10.82;;
52480;SDS011;38393;52.404;13.532;2022-08-19T10:12:18;14.07;;;10.35;;
52480;SDS011;38393;52.404;13.532;2022-08-19T10:14:43;14.13;;;10.27;;
52480;SDS011;38393;52.404;13.532;2022-08-19T10:17:10;15.80;;;10.68;;
52480;SDS011;38393;52.404;13.532;2022-08-19T10:19:36;14.95;;;10.63;;
52480;SDS011;38393;52.404;13.532;2022-08-19T10:22:03;15.23;;;9.85;;
52480;SDS011;38393;52.404;13.532;2022-08-19T10:24:30;16.27;;;10.55;;
52480;SDS011;38393;52.404;13.532;2022-08-19T10:26:56;14.80;;;9.75;;
52480;SDS011;38393;52.404;13.532;2022-08-19T10:29:22;13.40;;;9.93;;
52480;SDS011;38393;52.404;13.532;2022-08-19T10:31:48;14.18;;;10.27;;
52480;SDS011;38393;52.404;13.532;2022-08-19T10:34:14;14.98;;;10.38;;
52480;SDS011;38393;52.404;13.532;2022-08-19T10:36:40;19.55;;;11.23;;
52480;SDS011;38393;52.404;13.532;2022-08-19T10:39:08;15.60;;;10.13;;
52480;SDS011;38393;52.404;13.532;2022-08-19T10:41:37;15.75;;;10.60;;
52480;SDS011;38393;52.404;13.532;2022-08-19T10:44:05;15.18;;;10.15;;
52480;SDS011;38393;52.404;13.532;2022-08-19T10:46:31;15.57;;;10.48;;
52480;SDS011;38393;52.404;13.532;2022-08-19T10:48:58;12.77;;;9.07;;
52480;SDS011;38393;52.404;13.532;2022-08-19T10:51:24;14.45;;;9.82;;
52480;SDS011;38393;52.404;13.532;2022-08-19T10:54:09;21.02;;;9.32;;
52480;SDS011;38393;52.404;13.532;2022-08-19T10:56:35;14.07;;;9.52;;
52480;SDS011;38393;52.404;13.532;2022-08-19T10:59:16;12.35;;;8.77;;
52480;SDS011;38393;52.404;13.532;2022-08-19T11:01:44;16.67;;;9.88;;
52480;SDS011;38393;52.404;13.532;2022-08-19T11:04:11;13.88;;;9.32;;
52480;SDS011;38393;52.404;13.532;2022-08-19T11:06:38;13.30;;;9.32;;
52480;SDS011;38393;52.404;13.532;2022-08-19T11:09:06;13.98;;;9.13;;
52480;SDS011;38393;52.404;13.532;2022-08-19T11:11:33;15.32;;;10.05;;
52480;SDS011;38393;52.404;13.532;2022-08-19T11:14:04;16.60;;;9.65;;
52480;SDS011;38393;52.404;13.532;2022-08-19T11:16:30;14.38;;;8.55;;
52480;SDS011;38393;52.404;13.532;2022-08-19T11:18:57;13.13;;;8.70;;
52480;SDS011;38393;52.404;13.532;2022-08-19T11:21:25;12.13;;;8.13;;
52480;SDS011;38393;52.404;13.532;2022-08-19T11:23:52;14.05;;;9.10;;
52480;SDS011;38393;52.404;13.532;2022-08-19T11:26:19;12.77;;;8.65;;
52480;SDS011;38393;52.404;13.532;2022-08-19T11:28:45;12.93;;;8.93;;
52480;SDS011;38393;52.404;13.532;2022-08-19T11:31:12;12.90;;;8.63;;
52480;SDS011;38393;52.404;13.532;2022-08-19T11:33:38;12.27;;;8.05;;
52480;SDS011;38393;52.404;13.532;2022-08-19T11:36:04;12.02;;;8.75;;
52480;SDS011;38393;52.404;13.532;2022-08-19T11:38:30;13.65;;;8.57;;
52480;SDS011;38393;52.404;13.532;2022-08-19T11:40:57;12.27;;;8.48;;
52480;SDS011;38393;52.404;13.532;2022-08-19T11:43:23;12.40;;;8.57;;
52480;SDS011;38393;52.404;13.532;2022-08-19T11:45:51;11.95;;;8.18;;
52480;SDS011;38393;52.404;13.532;2022-08-19T11:48:17;13.18;;;8.32;;
52480;SDS011;38393;52.404;13.532;2022-08-19T11:50:47;10.70;;;7.82;;
52480;SDS011;38393;52.404;13.532;2022-08-19T11:53:13;11.93;;;7.65;;
52480;SDS011;38393;52.404;13.532;2022-08-19T11:55:39;11.35;;;8.18;;
52480;SDS011;38393;52.404;13.532;2022-08-19T11:58:05;10.70;;;7.32;;
52480;SDS011;38393;52.404;13.532;2022-08-19T12:00:33;13.23;;;8.93;;
52480;SDS011;38393;52.404;13.532;2022-08-19T12:03:00;11.32;;;7.75;;
52480;SDS011;38393;52.404;13.532;2022-08-19T12:05:26;12.82;;;8.02;;
52480;SDS011;38393;52.404;13.532;2022-08-19T12:07:52;10.45;;;7.30;;
52480;SDS011;38393;52.404;13.532;2022-08-19T12:10:19;11.20;;;7.68;;
52480;SDS011;38393;52.404;13.532;2022-08-19T12:12:45;10.00;;;7.57;;
52480;SDS011;38393;52.404;13.532;2022-08-19T12:15:11;12.98;;;7.90;;
52480;SDS011;38393;52.404;13.532;2022-08-19T12:17:39;11.70;;;7.18;;
52480;SDS011;38393;52.404;13.532;2022-08-19T12:20:05;12.35;;;7.50;;
52480;SDS011;38393;52.404;13.532;2022-08-19T12:22:33;9.77;;;7.30;;
52480;SDS011;38393;52.404;13.532;2022-08-19T12:24:59;10.70;;;7.05;;
52480;SDS011;38393;52.404;13.532;2022-08-19T12:27:25;10.00;;;7.63;;
52480;SDS011;38393;52.404;13.532;2022-08-19T12:29:51;12.98;;;8.02;;
52480;SDS011;38393;52.404;13.532;2022-08-19T12:32:17;10.63;;;7.28;;
52480;SDS011;38393;52.404;13.532;2022-08-19T12:34:43;10.90;;;7.65;;
52480;SDS011;38393;52.404;13.532;2022-08-19T12:37:12;10.13;;;6.55;;
52480;SDS011;38393;52.404;13.532;2022-08-19T12:39:38;10.27;;;7.25;;
52480;SDS011;38393;52.404;13.532;2022-08-19T12:42:05;10.05;;;7.00;;
52480;SDS011;38393;52.404;13.532;2022-08-19T12:44:33;9.70;;;7.03;;
52480;SDS011;38393;52.404;13.532;2022-08-19T12:46:59;9.43;;;6.93;;
52480;SDS011;38393;52.404;13.532;2022-08-19T12:49:26;10.77;;;6.78;;
52480;SDS011;38393;52.404;13.532;2022-08-19T12:51:53;11.68;;;7.22;;
52480;SDS011;38393;52.404;13.532;2022-08-19T12:54:18;10.43;;;7.00;;
52480;SDS011;38393;52.404;13.532;2022-08-19T12:56:45;9.73;;;6.70;;
52480;SDS011;38393;52.404;13.532;2022-08-19T12:59:11;10.23;;;7.13;;
52480;SDS011;38393;52.404;13.532;2022-08-19T13:01:37;8.32;;;6.30;;
52480;SDS011;38393;52.404;13.532;2022-08-19T13:04:03;8.32;;;6.07;;
52480;SDS011;38393;52.404;13.532;2022-08-19T13:06:29;12.38;;;6.90;;
52480;SDS011;38393;52.404;13.532;2022-08-19T13:08:55;8.55;;;6.07;;
52480;SDS011;38393;52.404;13.532;2022-08-19T13:11:21;9.30;;;6.68;;
52480;SDS011;38393;52.404;13.532;2022-08-19T13:13:51;8.48;;;6.20;;
52480;SDS011;38393;52.404;13.532;2022-08-19T13:16:18;9.52;;;6.53;;
52480;SDS011;38393;52.404;13.532;2022-08-19T13:18:46;10.15;;;7.35;;
52480;SDS011;38393;52.404;13.532;2022-08-19T13:21:16;9.60;;;7.15;;
52480;SDS011;38393;52.404;13.532;2022-08-19T13:23:44;8.82;;;6.28;;
52480;SDS011;38393;52.404;13.532;2022-08-19T13:26:10;10.45;;;6.30;;
52480;SDS011;38393;52.404;13.532;2022-08-19T13:28:37;9.85;;;6.35;;
52480;SDS011;38393;52.404;13.532;2022-08-19T13:31:23;8.75;;;6.30;;
52480;SDS011;38393;52.404;13.532;2022-08-19T13:34:08;9.20;;;6.75;;
52480;SDS011;38393;52.404;13.532;2022-08-19T13:36:34;7.93;;;6.05;;
52480;SDS011;38393;52.404;13.532;2022-08-19T13:39:00;8.95;;;6.18;;
52480;SDS011;38393;52.404;13.532;2022-08-19T13:41:26;9.30;;;5.63;;
52480;SDS011;38393;52.404;13.532;2022-08-19T13:43:53;10.48;;;6.25;;
52480;SDS011;38393;52.404;13.532;2022-08-19T13:46:19;12.25;;;5.93;;
52480;SDS011;38393;52.404;13.532;2022-08-19T13:48:45;8.65;;;5.72;;
52480;SDS011;38393;52.404;13.532;2022-08-19T13:51:13;8.65;;;6.05;;
52480;SDS011;38393;52.404;13.532;2022-08-19T13:53:41;8.10;;;6.22;;
52480;SDS011;38393;52.404;13.532;2022-08-19T13:56:08;8.05;;;6.00;;
52480;SDS011;38393;52.404;13.532;2022-08-19T13:58:34;9.93;;;6.22;;
52480;SDS011;38393;52.404;13.532;2022-08-19T14:01:00;8.98;;;6.32;;
52480;SDS011;38393;52.404;13.532;2022-08-19T14:03:35;9.70;;;6.07;;
52480;SDS011;38393;52.404;13.532;2022-08-19T14:06:02;11.75;;;7.07;;
52480;SDS011;38393;52.404;13.532;2022-08-19T14:08:28;9.73;;;6.70;;
52480;SDS011;38393;52.404;13.532;2022-08-19T14:10:57;9.05;;;6.72;;
52480;SDS011;38393;52.404;13.532;2022-08-19T14:13:23;9.10;;;6.60;;
52480;SDS011;38393;52.404;13.532;2022-08-19T14:15:49;9.23;;;6.90;;
52480;SDS011;38393;52.404;13.532;2022-08-19T14:18:16;9.55;;;6.82;;
52480;SDS011;38393;52.404;13.532;2022-08-19T14:20:43;10.70;;;6.80;;
52480;SDS011;38393;52.404;13.532;2022-08-19T14:23:09;10.65;;;6.82;;
52480;SDS011;38393;52.404;13.532;2022-08-19T14:25:37;8.68;;;6.70;;
52480;SDS011;38393;52.404;13.532;2022-08-19T14:28:03;10.05;;;6.57;;
52480;SDS011;38393;52.404;13.532;2022-08-19T14:30:30;12.38;;;7.00;;